createdAt,value
2019-02-26T00:00:36.096Z,48.83
2019-02-26T00:03:04.866Z,50.63
2019-02-26T00:05:33.473Z,52.65
2019-02-26T00:08:02.593Z,46.68
2019-02-26T00:10:34.008Z,53.70
2019-02-26T00:13:01.912Z,56.45
2019-02-26T00:15:33.287Z,48.73
2019-02-26T00:18:00.898Z,46.02
2019-02-26T00:20:31.533Z,48.15
2019-02-26T00:23:01.882Z,43.40
2019-02-26T00:25:30.096Z,45.03
2019-02-26T00:27:58.770Z,49.75
2019-02-26T00:30:27.456Z,44.33
2019-02-26T00:32:57.800Z,47.17
2019-02-26T00:35:27.649Z,46.90
2019-02-26T00:37:56.525Z,48.40
2019-02-26T00:40:25.191Z,46.85
2019-02-26T00:42:55.035Z,52.40
2019-02-26T00:45:26.867Z,45.70
2019-02-26T00:47:54.449Z,48.23
2019-02-26T00:50:23.095Z,49.88
2019-02-26T00:52:54.618Z,46.28
2019-02-26T00:55:25.252Z,42.20
2019-02-26T00:57:56.822Z,45.23
2019-02-26T01:00:24.637Z,44.70
2019-02-26T01:02:53.727Z,49.23
2019-02-26T01:05:22.384Z,40.60
2019-02-26T01:07:52.462Z,46.33
2019-02-26T01:10:23.449Z,50.78
2019-02-26T01:12:51.590Z,42.73
2019-02-26T01:15:21.486Z,52.00
2019-02-26T01:17:50.143Z,44.35
2019-02-26T01:20:21.535Z,47.35
2019-02-26T01:22:49.527Z,40.92
2019-02-26T01:25:20.454Z,41.28
2019-02-26T01:27:50.577Z,42.03
2019-02-26T01:30:23.511Z,43.48
2019-02-26T01:32:48.972Z,38.48
2019-02-26T01:35:17.614Z,40.12
2019-02-26T01:37:46.308Z,47.27
2019-02-26T01:40:18.235Z,41.15
2019-02-26T01:42:49.752Z,37.20
2019-02-26T01:45:15.523Z,37.15
2019-02-26T01:47:46.227Z,37.40
2019-02-26T01:50:16.170Z,36.30
2019-02-26T01:52:44.789Z,37.73
2019-02-26T01:55:13.437Z,35.92
2019-02-26T01:57:43.491Z,32.23
2019-02-26T02:00:19.442Z,31.95
2019-02-26T02:02:48.012Z,33.83
2019-02-26T02:06:13.602Z,33.90
2019-02-26T02:08:43.529Z,33.63
2019-02-26T02:11:11.896Z,32.40
2019-02-26T02:13:41.427Z,33.78
2019-02-26T02:16:14.038Z,34.55
2019-02-26T02:18:48.125Z,29.05
2019-02-26T02:21:35.642Z,33.70
2019-02-26T02:24:05.729Z,35.10
2019-02-26T02:26:35.055Z,37.73
2019-02-26T02:29:04.018Z,32.00
2019-02-26T02:31:34.876Z,29.10
2019-02-26T02:34:03.068Z,33.20
2019-02-26T02:36:31.655Z,27.40
2019-02-26T02:39:00.332Z,30.97
2019-02-26T02:41:29.074Z,32.90
2019-02-26T02:43:57.772Z,32.93
2019-02-26T02:46:26.505Z,31.60
2019-02-26T02:48:55.281Z,30.02
2019-02-26T02:51:25.742Z,29.15
2019-02-26T02:53:57.336Z,32.28
2019-02-26T02:56:24.684Z,27.98
2019-02-26T02:58:53.427Z,27.27
2019-02-26T03:01:24.449Z,32.78
2019-02-26T03:03:53.816Z,32.17
2019-02-26T03:06:24.219Z,28.55
2019-02-26T03:08:53.537Z,28.92
2019-02-26T03:11:22.421Z,31.48
2019-02-26T03:13:53.238Z,30.43
2019-02-26T03:16:21.996Z,28.50
2019-02-26T03:18:51.732Z,30.92
2019-02-26T03:21:22.096Z,27.42
2019-02-26T03:23:50.618Z,27.02
2019-02-26T03:26:20.558Z,29.45
2019-02-26T03:28:51.386Z,28.17
2019-02-26T03:31:20.096Z,29.82
2019-02-26T03:33:48.839Z,25.57
2019-02-26T03:36:19.267Z,30.08
2019-02-26T03:38:49.049Z,26.48
2019-02-26T03:41:22.230Z,26.15
2019-02-26T03:43:48.449Z,26.90
2019-02-26T03:46:17.128Z,22.93
2019-02-26T03:48:45.858Z,21.37
2019-02-26T03:51:17.210Z,23.18
2019-02-26T03:53:44.691Z,26.75
2019-02-26T03:56:14.810Z,23.80
2019-02-26T03:58:43.712Z,21.17
2019-02-26T04:01:13.628Z,24.07
2019-02-26T04:03:42.715Z,21.85
2019-02-26T04:06:12.170Z,24.77
2019-02-26T04:08:42.217Z,21.77
2019-02-26T04:11:11.482Z,23.65
2019-02-26T04:13:41.027Z,18.77
2019-02-26T04:16:10.384Z,20.62
2019-02-26T04:18:39.111Z,22.62
2019-02-26T04:21:09.481Z,22.75
2019-02-26T04:23:38.828Z,25.27
2019-02-26T04:26:29.032Z,23.12
2019-02-26T04:29:02.905Z,21.37
2019-02-26T04:31:49.322Z,21.65
2019-02-26T04:34:20.211Z,21.23
2019-02-26T04:36:59.113Z,22.22
2019-02-26T04:39:49.064Z,19.27
2019-02-26T04:42:32.508Z,19.92
2019-02-26T04:45:09.701Z,23.57
2019-02-26T04:47:49.686Z,19.12
2019-02-26T04:50:18.100Z,22.50
2019-02-26T04:52:46.780Z,18.77
2019-02-26T04:55:15.349Z,20.27
2019-02-26T04:57:46.616Z,20.17
2019-02-26T05:00:14.331Z,22.95
2019-02-26T05:02:42.990Z,22.40
2019-02-26T05:05:11.722Z,24.18
2019-02-26T05:07:42.123Z,26.73
2019-02-26T05:10:10.819Z,23.32
2019-02-26T05:12:40.140Z,26.97
2019-02-26T05:15:11.459Z,22.85
2019-02-26T05:17:39.516Z,22.27
2019-02-26T05:20:10.455Z,23.07
2019-02-26T05:22:38.433Z,25.48
2019-02-26T05:25:13.763Z,22.85
2019-02-26T05:27:42.062Z,26.80
2019-02-26T05:30:12.869Z,29.52
2019-02-26T05:32:40.211Z,32.95
2019-02-26T05:35:08.947Z,22.62
2019-02-26T05:37:40.753Z,26.48
2019-02-26T05:40:10.477Z,27.95
2019-02-26T05:42:38.439Z,29.82
2019-02-26T05:45:09.288Z,27.37
2019-02-26T05:47:37.620Z,32.20
2019-02-26T05:50:13.009Z,31.75
2019-02-26T05:52:38.955Z,27.85
2019-02-26T05:55:08.337Z,31.07
2019-02-26T05:57:36.978Z,30.85
2019-02-26T06:00:08.523Z,30.70
2019-02-26T06:02:40.126Z,29.50
2019-02-26T06:05:12.353Z,35.50
2019-02-26T06:07:39.844Z,29.70
2019-02-26T06:10:08.479Z,33.40
2019-02-26T06:12:38.996Z,34.18
2019-02-26T06:15:08.101Z,29.52
2019-02-26T06:17:40.633Z,30.37
2019-02-26T06:20:15.917Z,36.17
2019-02-26T06:22:44.655Z,33.90
2019-02-26T06:25:18.594Z,30.68
2019-02-26T06:27:43.661Z,28.80
2019-02-26T06:30:14.080Z,37.10
2019-02-26T06:32:44.754Z,37.95
2019-02-26T06:35:16.503Z,34.13
2019-02-26T06:37:45.754Z,38.42
2019-02-26T06:40:16.136Z,37.73
2019-02-26T06:42:44.882Z,39.90
2019-02-26T06:45:16.425Z,38.28
2019-02-26T06:47:45.614Z,46.77
2019-02-26T06:50:18.009Z,49.35
2019-02-26T06:52:47.874Z,47.62
2019-02-26T06:55:15.880Z,49.27
2019-02-26T06:57:47.173Z,40.88
2019-02-26T07:00:21.252Z,41.85
2019-02-26T07:02:48.972Z,36.98
2019-02-26T07:05:17.715Z,47.65
2019-02-26T07:07:46.420Z,44.70
2019-02-26T07:10:18.288Z,47.23
2019-02-26T07:12:48.890Z,49.40
2019-02-26T07:15:17.112Z,41.98
2019-02-26T07:17:46.283Z,44.40
2019-02-26T07:20:16.492Z,44.08
2019-02-26T07:22:47.217Z,45.85
2019-02-26T07:25:18.037Z,48.78
2019-02-26T07:27:45.764Z,45.95
2019-02-26T07:30:14.454Z,53.28
2019-02-26T07:32:45.507Z,48.90
2019-02-26T07:35:16.051Z,47.88
2019-02-26T07:37:43.729Z,45.70
2019-02-26T07:40:15.171Z,48.83
2019-02-26T07:42:44.713Z,47.43
2019-02-26T07:45:15.309Z,47.98
2019-02-26T07:47:45.081Z,53.55
2019-02-26T07:50:14.594Z,45.00
2019-02-26T07:52:44.144Z,44.13
2019-02-26T07:55:14.704Z,46.85
2019-02-26T07:57:45.315Z,45.08
2019-02-26T08:00:16.561Z,45.20
2019-02-26T08:02:45.215Z,48.05
2019-02-26T08:05:13.870Z,44.05
2019-02-26T08:07:44.420Z,47.33
2019-02-26T08:10:16.839Z,46.77
2019-02-26T08:12:45.487Z,46.42
2019-02-26T08:15:15.628Z,41.45
2019-02-26T08:17:47.788Z,97.82
2019-02-26T08:20:15.231Z,119.62
2019-02-26T08:22:43.861Z,65.15
2019-02-26T08:25:13.714Z,60.90
2019-02-26T08:27:42.376Z,68.87
2019-02-26T08:30:18.824Z,65.37
2019-02-26T08:32:48.344Z,59.35
2019-02-26T08:35:18.888Z,56.13
2019-02-26T08:37:46.803Z,45.45
2019-02-26T08:40:15.659Z,37.10
2019-02-26T08:42:44.305Z,42.13
2019-02-26T08:45:23.133Z,34.60
2019-02-26T08:47:51.090Z,36.00
2019-02-26T08:50:19.736Z,46.35
2019-02-26T08:52:52.305Z,45.50
2019-02-26T08:55:21.633Z,47.50
2019-02-26T08:57:51.217Z,46.30
2019-02-26T09:00:20.308Z,53.35
2019-02-26T09:02:53.549Z,50.58
2019-02-26T09:05:19.273Z,56.37
2019-02-26T09:07:50.350Z,45.90
2019-02-26T09:10:20.625Z,48.28
2019-02-26T09:12:51.063Z,58.17
2019-02-26T09:15:20.067Z,48.50
2019-02-26T09:17:49.682Z,51.28
2019-02-26T09:20:19.580Z,53.13
2019-02-26T09:22:50.758Z,48.52
2019-02-26T09:25:20.372Z,55.80
2019-02-26T09:27:48.750Z,44.35
2019-02-26T09:30:19.484Z,46.75
2019-02-26T09:32:48.107Z,45.43
2019-02-26T09:35:20.382Z,37.25
2019-02-26T09:37:50.722Z,39.70
2019-02-26T09:40:23.034Z,36.40
2019-02-26T09:42:53.754Z,34.70
2019-02-26T09:45:25.858Z,42.43
2019-02-26T09:47:55.630Z,36.70
2019-02-26T09:50:23.789Z,30.88
2019-02-26T09:52:55.179Z,32.48
2019-02-26T09:55:22.672Z,33.95
2019-02-26T09:57:51.224Z,33.30
2019-02-26T10:00:23.649Z,31.00
2019-02-26T10:02:52.279Z,28.52
2019-02-26T10:05:21.019Z,37.05
2019-02-26T10:07:53.666Z,38.88
2019-02-26T10:10:22.093Z,40.70
2019-02-26T10:12:53.634Z,32.90
2019-02-26T10:15:21.092Z,38.00
2019-02-26T10:17:49.737Z,39.03
2019-02-26T10:20:26.211Z,35.73
2019-02-26T10:22:57.201Z,39.10
2019-02-26T10:25:26.385Z,33.15
2019-02-26T10:27:54.576Z,37.75
2019-02-26T10:30:23.151Z,37.17
2019-02-26T10:32:51.798Z,37.38
2019-02-26T10:35:32.441Z,36.28
2019-02-26T10:37:54.553Z,38.83
2019-02-26T10:40:23.292Z,45.93
2019-02-26T10:42:51.995Z,39.13
2019-02-26T10:45:23.752Z,39.38
2019-02-26T10:47:54.353Z,43.13
2019-02-26T10:50:31.299Z,42.45
2019-02-26T10:53:01.467Z,32.55
2019-02-26T10:55:35.286Z,33.63
2019-02-26T10:57:58.664Z,39.85
2019-02-26T11:00:32.196Z,38.33
2019-02-26T11:02:59.310Z,38.90
2019-02-26T11:05:28.008Z,38.42
2019-02-26T11:07:59.699Z,34.03
2019-02-26T11:10:26.927Z,37.50
2019-02-26T11:12:58.625Z,41.20
2019-02-26T11:15:26.937Z,40.83
2019-02-26T11:17:56.182Z,40.83
2019-02-26T11:20:27.724Z,31.12
2019-02-26T11:22:55.227Z,31.97
2019-02-26T11:25:24.815Z,43.50
2019-02-26T11:27:54.171Z,39.35
2019-02-26T11:30:27.235Z,41.75
2019-02-26T11:35:26.861Z,33.00
2019-02-26T11:37:55.434Z,34.08
2019-02-26T11:40:28.084Z,36.65
2019-02-26T11:42:55.972Z,34.63
2019-02-26T11:45:24.622Z,37.55
2019-02-26T11:47:55.180Z,35.90
2019-02-26T11:50:27.984Z,33.85
2019-02-26T11:52:57.241Z,35.00
2019-02-26T11:55:26.946Z,42.30
2019-02-26T11:57:56.146Z,41.18
2019-02-26T12:00:31.351Z,40.88
2019-02-26T12:02:58.153Z,37.80
2019-02-26T12:05:31.384Z,34.50
2019-02-26T12:07:58.858Z,41.08
2019-02-26T12:10:29.668Z,34.92
2019-02-26T12:13:00.055Z,45.63
2019-02-26T12:15:30.199Z,36.65
2019-02-26T12:17:58.742Z,39.00
2019-02-26T12:20:27.802Z,37.55
2019-02-26T12:22:56.461Z,35.65
2019-02-26T12:25:25.041Z,36.25
2019-02-26T12:27:53.658Z,33.60
2019-02-26T12:30:23.734Z,35.38
2019-02-26T12:32:54.451Z,35.38
2019-02-26T12:35:22.795Z,35.78
2019-02-26T12:37:53.960Z,35.10
2019-02-26T12:40:24.720Z,39.67
2019-02-26T12:42:52.107Z,34.58
2019-02-26T12:45:25.605Z,37.03
2019-02-26T12:47:55.255Z,35.63
2019-02-26T12:50:29.097Z,38.70
2019-02-26T12:52:57.019Z,36.98
2019-02-26T12:55:29.497Z,32.10
2019-02-26T12:57:56.467Z,33.23
2019-02-26T13:00:26.404Z,32.23
2019-02-26T13:02:55.330Z,35.60
2019-02-26T13:05:24.047Z,31.82
2019-02-26T13:07:52.690Z,31.23
2019-02-26T13:10:23.546Z,34.13
2019-02-26T13:12:54.987Z,34.90
2019-02-26T13:15:22.913Z,30.72
2019-02-26T13:17:54.319Z,32.53
2019-02-26T13:20:23.629Z,35.20
2019-02-26T13:22:56.481Z,31.80
2019-02-26T13:25:26.355Z,33.48
2019-02-26T13:27:52.892Z,39.35
2019-02-26T13:30:30.691Z,35.40
2019-02-26T13:33:00.864Z,35.58
2019-02-26T13:35:29.628Z,43.00
2019-02-26T13:38:00.651Z,30.70
2019-02-26T13:40:29.332Z,34.73
2019-02-26T13:45:28.540Z,35.45
2019-02-26T13:48:01.133Z,41.05
2019-02-26T13:50:29.276Z,38.30
2019-02-26T13:52:57.922Z,49.77
2019-02-26T13:55:26.622Z,41.53
2019-02-26T13:57:55.289Z,40.23
2019-02-26T14:00:26.688Z,41.63
2019-02-26T14:02:54.258Z,42.58
2019-02-26T14:05:22.910Z,43.90
2019-02-26T14:07:51.566Z,44.03
2019-02-26T14:10:25.385Z,49.08
2019-02-26T14:12:54.037Z,47.20
2019-02-26T14:15:24.386Z,50.80
2019-02-26T14:17:53.297Z,47.65
2019-02-26T14:20:21.948Z,44.67
2019-02-26T14:22:50.584Z,50.88
2019-02-26T14:25:19.274Z,47.38
2019-02-26T14:27:47.922Z,46.10
2019-02-26T14:30:19.052Z,46.98
2019-02-26T14:32:47.751Z,48.65
2019-02-26T14:35:16.624Z,41.98
2019-02-26T14:37:45.212Z,45.75
2019-02-26T14:40:20.810Z,46.48
2019-02-26T14:42:49.406Z,43.20
2019-02-26T14:45:22.545Z,46.00
2019-02-26T14:47:51.261Z,43.75
2019-02-26T14:50:21.699Z,42.95
2019-02-26T14:52:50.355Z,39.90
2019-02-26T14:55:19.048Z,38.13
2019-02-26T14:57:47.694Z,42.95
2019-02-26T15:00:21.793Z,43.05
2019-02-26T15:02:50.714Z,36.83
2019-02-26T15:05:19.359Z,37.58
2019-02-26T15:07:47.931Z,40.28
2019-02-26T15:10:16.618Z,37.93
2019-02-26T15:12:45.277Z,45.92
2019-02-26T15:15:17.451Z,39.48
2019-02-26T15:20:19.464Z,40.38
2019-02-26T15:22:48.177Z,45.08
2019-02-26T15:25:20.050Z,39.13
2019-02-26T15:27:48.705Z,39.88
2019-02-26T15:30:19.051Z,44.27
2019-02-26T15:32:47.765Z,40.35
2019-02-26T15:35:16.388Z,46.83
2019-02-26T15:37:45.057Z,44.48
2019-02-26T15:40:15.460Z,43.15
2019-02-26T15:42:44.107Z,44.05
2019-02-26T15:45:24.060Z,46.45
2019-02-26T15:47:53.401Z,47.05
2019-02-26T15:50:22.437Z,43.87
2019-02-26T15:52:53.018Z,43.08
2019-02-26T15:55:29.192Z,50.23
2019-02-26T15:58:03.122Z,43.42
2019-02-26T16:00:28.692Z,46.98
2019-02-26T16:02:59.390Z,40.33
2019-02-26T16:05:36.356Z,44.50
2019-02-26T16:08:05.293Z,45.65
2019-02-26T16:10:33.952Z,50.85
2019-02-26T16:13:05.399Z,42.65
2019-02-26T16:15:35.668Z,44.80
2019-02-26T16:18:04.308Z,42.75
2019-02-26T16:20:33.008Z,37.48
2019-02-26T16:23:01.650Z,45.12
2019-02-26T16:25:30.285Z,45.23
2019-02-26T16:27:58.990Z,47.62
2019-02-26T16:30:28.713Z,46.33
2019-02-26T16:32:57.352Z,43.30
2019-02-26T16:35:26.066Z,40.70
2019-02-26T16:37:54.711Z,47.35
2019-02-26T16:40:23.287Z,52.10
2019-02-26T16:42:51.997Z,47.23
2019-02-26T16:45:22.646Z,41.65
2019-02-26T16:47:51.280Z,46.35
2019-02-26T16:50:24.962Z,50.08
2019-02-26T16:52:53.611Z,44.40
2019-02-26T16:55:22.246Z,43.60
2019-02-26T16:58:10.303Z,46.25
2019-02-26T17:00:38.955Z,45.73
2019-02-26T17:03:07.612Z,49.45
2019-02-26T17:05:36.337Z,49.33
2019-02-26T17:08:04.896Z,55.73
2019-02-26T17:10:33.558Z,46.68
2019-02-26T17:13:03.088Z,55.33
2019-02-26T17:15:36.687Z,47.55
2019-02-26T17:18:09.592Z,59.27
2019-02-26T17:20:36.063Z,53.40
2019-02-26T17:23:04.725Z,47.45
2019-02-26T17:25:33.377Z,50.35
2019-02-26T17:28:02.054Z,57.70
2019-02-26T17:30:30.691Z,55.67
2019-02-26T17:32:59.354Z,60.67
2019-02-26T17:35:29.549Z,53.60
2019-02-26T17:37:58.369Z,47.98
2019-02-26T17:40:27.911Z,57.85
2019-02-26T17:42:57.222Z,54.65
2019-02-26T17:45:28.337Z,63.08
2019-02-26T17:47:57.525Z,58.80
2019-02-26T17:50:31.777Z,51.60
2019-02-26T17:53:00.430Z,64.87
2019-02-26T17:55:29.090Z,64.25
2019-02-26T17:57:57.807Z,67.05
2019-02-26T18:00:28.012Z,64.20
2019-02-26T18:02:56.658Z,62.67
2019-02-26T18:05:25.277Z,64.30
2019-02-26T18:07:53.920Z,63.70
2019-02-26T18:10:25.039Z,65.47
2019-02-26T18:12:54.110Z,57.45
2019-02-26T18:15:22.915Z,57.80
2019-02-26T18:17:51.568Z,63.10
2019-02-26T18:20:21.265Z,61.98
2019-02-26T18:22:49.916Z,61.50
2019-02-26T18:25:20.747Z,62.75
2019-02-26T18:27:49.457Z,66.30
2019-02-26T18:30:23.964Z,66.50
2019-02-26T18:32:55.660Z,55.28
2019-02-26T18:35:22.954Z,63.17
2019-02-26T18:37:51.602Z,61.68
2019-02-26T18:40:20.316Z,67.80
2019-02-26T18:42:49.162Z,60.10
2019-02-26T18:45:20.460Z,62.60
2019-02-26T18:47:49.160Z,92.30
2019-02-26T18:50:17.813Z,73.35
2019-02-26T18:52:46.469Z,60.28
2019-02-26T18:55:17.641Z,57.58
2019-02-26T18:57:46.287Z,55.63
2019-02-26T19:00:20.749Z,49.05
2019-02-26T19:02:49.444Z,51.33
2019-02-26T19:05:20.405Z,53.75
2019-02-26T19:07:48.396Z,55.90
2019-02-26T19:10:20.967Z,52.40
2019-02-26T19:12:48.900Z,55.43
2019-02-26T19:15:19.937Z,53.73
2019-02-26T19:17:50.323Z,43.90
2019-02-26T19:20:21.583Z,48.73
2019-02-26T19:22:52.532Z,53.38
2019-02-26T19:25:21.234Z,50.10
2019-02-26T19:27:52.822Z,55.20
2019-02-26T19:30:21.886Z,54.65
2019-02-26T19:32:50.594Z,48.40
2019-02-26T19:35:19.246Z,51.35
2019-02-26T19:37:55.109Z,53.87
2019-02-26T19:40:30.503Z,50.25
2019-02-26T19:42:59.494Z,51.92
2019-02-26T19:45:47.549Z,50.45
2019-02-26T19:48:16.197Z,50.03
2019-02-26T19:50:47.759Z,47.43
2019-02-26T19:53:15.207Z,56.75
2019-02-26T19:55:49.855Z,49.70
2019-02-26T19:58:18.971Z,49.13
2019-02-26T20:00:47.635Z,47.70
2019-02-26T20:03:16.283Z,52.05
2019-02-26T20:05:46.632Z,55.52
2019-02-26T20:08:15.282Z,50.73
2019-02-26T20:10:47.877Z,53.23
2019-02-26T20:13:14.287Z,54.95
2019-02-26T20:15:42.934Z,47.25
2019-02-26T20:18:20.119Z,52.27
2019-02-26T20:20:45.732Z,52.60
2019-02-26T20:23:12.231Z,49.77
2019-02-26T20:25:42.790Z,47.67
2019-02-26T20:28:11.244Z,55.45
2019-02-26T20:30:39.894Z,53.15
2019-02-26T20:33:08.524Z,56.60
2019-02-26T20:35:37.435Z,53.35
2019-02-26T20:38:06.208Z,50.33
2019-02-26T20:40:34.849Z,51.13
2019-02-26T20:43:05.340Z,46.40
2019-02-26T20:45:33.858Z,48.38
2019-02-26T20:48:04.212Z,58.55
2019-02-26T20:50:32.844Z,50.90
2019-02-26T20:53:05.672Z,50.67
2019-02-26T20:55:33.806Z,48.98
2019-02-26T20:58:02.774Z,51.13
2019-02-26T21:00:31.424Z,54.85
2019-02-26T21:03:00.095Z,58.40
2019-02-26T21:05:28.788Z,46.37
2019-02-26T21:07:58.790Z,44.88
2019-02-26T21:10:27.729Z,42.33
2019-02-26T21:12:56.435Z,39.00
2019-02-26T21:15:26.000Z,47.00
2019-02-26T21:17:57.744Z,46.00
2019-02-26T21:20:24.942Z,49.03
2019-02-26T21:22:54.900Z,44.40
2019-02-26T21:25:23.869Z,45.80
2019-02-26T21:27:52.506Z,47.05
2019-02-26T21:30:27.136Z,43.83
2019-02-26T21:32:57.868Z,56.92
2019-02-26T21:35:26.075Z,44.90
2019-02-26T21:37:54.738Z,49.10
2019-02-26T21:40:23.394Z,47.58
2019-02-26T21:42:51.960Z,46.30
2019-02-26T21:45:20.602Z,52.73
2019-02-26T21:47:49.269Z,47.93
2019-02-26T21:50:22.110Z,42.98
2019-02-26T21:53:03.510Z,43.20
2019-02-26T21:55:18.708Z,49.33
2019-02-26T21:57:47.404Z,37.90
2019-02-26T22:00:17.369Z,46.83
2019-02-26T22:02:46.018Z,47.20
2019-02-26T22:05:14.713Z,45.00
2019-02-26T22:07:43.362Z,53.35
2019-02-26T22:10:15.138Z,38.53
2019-02-26T22:12:43.846Z,44.40
2019-02-26T22:15:14.398Z,45.08
2019-02-26T22:17:42.992Z,46.10
2019-02-26T22:20:22.131Z,46.55
2019-02-26T22:22:45.179Z,43.90
2019-02-26T22:25:17.152Z,38.40
2019-02-26T22:27:44.292Z,43.50
2019-02-26T22:30:15.070Z,44.50
2019-02-26T22:32:43.710Z,43.70
2019-02-26T22:35:12.438Z,41.05
2019-02-26T22:37:41.478Z,43.25
2019-02-26T22:40:15.346Z,40.40
2019-02-26T22:42:44.051Z,40.90
2019-02-26T22:45:14.302Z,38.33
2019-02-26T22:47:44.134Z,43.52
2019-02-26T22:50:17.459Z,39.67
2019-02-26T22:52:46.102Z,37.90
2019-02-26T22:55:17.255Z,41.50
2019-02-26T22:57:46.277Z,41.18
2019-02-26T23:00:31.455Z,37.95
2019-02-26T23:03:00.158Z,39.58
2019-02-26T23:05:28.920Z,42.50
2019-02-26T23:07:57.567Z,41.15
2019-02-26T23:10:26.190Z,42.17
2019-02-26T23:12:54.826Z,46.35
2019-02-26T23:15:23.492Z,40.90
2019-02-26T23:17:52.097Z,43.55
2019-02-26T23:20:20.759Z,42.33
2019-02-26T23:22:49.397Z,42.95
2019-02-26T23:25:18.104Z,41.05
2019-02-26T23:27:48.680Z,42.48
2019-02-26T23:30:17.079Z,43.87
2019-02-26T23:32:45.782Z,46.68
2019-02-26T23:35:15.040Z,39.35
2019-02-26T23:37:43.692Z,54.20
2019-02-26T23:40:15.218Z,42.25
2019-02-26T23:42:43.872Z,41.60
2019-02-26T23:45:13.104Z,42.98
2019-02-26T23:47:41.743Z,44.63
2019-02-26T23:50:11.695Z,43.23
2019-02-26T23:52:40.140Z,42.17
2019-02-26T23:55:13.056Z,39.83
